sensor_id;sensor_type;location;lat;lon;timestamp;P1;durP1;ratioP1;P2;durP2;ratioP2
54995;SDS011;40893;47.146;9.126;2022-07-29T00:00:28;3.45;;;1.27;;
54995;SDS011;40893;47.146;9.126;2022-07-29T00:02:54;3.80;;;1.35;;
54995;SDS011;40893;47.146;9.126;2022-07-29T00:05:19;1.63;;;1.23;;
54995;SDS011;40893;47.146;9.126;2022-07-29T00:07:45;3.42;;;1.40;;
54995;SDS011;40893;47.146;9.126;2022-07-29T00:10:10;3.65;;;1.23;;
54995;SDS011;40893;47.146;9.126;2022-07-29T00:12:36;1.20;;;1.10;;
54995;SDS011;40893;47.146;9.126;2022-07-29T00:15:02;3.58;;;1.40;;
54995;SDS011;40893;47.146;9.126;2022-07-29T00:17:29;4.13;;;1.23;;
54995;SDS011;40893;47.146;9.126;2022-07-29T00:19:54;1.17;;;1.10;;
54995;SDS011;40893;47.146;9.126;2022-07-29T00:22:20;1.50;;;1.23;;
54995;SDS011;40893;47.146;9.126;2022-07-29T00:24:47;1.42;;;1.33;;
54995;SDS011;40893;47.146;9.126;2022-07-29T00:27:13;1.40;;;1.30;;
54995;SDS011;40893;47.146;9.126;2022-07-29T00:29:39;3.30;;;1.38;;
54995;SDS011;40893;47.146;9.126;2022-07-29T00:32:04;1.40;;;1.30;;
54995;SDS011;40893;47.146;9.126;2022-07-29T00:34:30;2.25;;;1.30;;
54995;SDS011;40893;47.146;9.126;2022-07-29T00:37:14;3.25;;;1.27;;
54995;SDS011;40893;47.146;9.126;2022-07-29T00:39:40;1.30;;;1.15;;
54995;SDS011;40893;47.146;9.126;2022-07-29T00:42:05;2.08;;;1.10;;
54995;SDS011;40893;47.146;9.126;2022-07-29T00:44:35;1.40;;;1.20;;
54995;SDS011;40893;47.146;9.126;2022-07-29T00:47:04;3.58;;;1.38;;
54995;SDS011;40893;47.146;9.126;2022-07-29T00:49:30;3.17;;;1.30;;
54995;SDS011;40893;47.146;9.126;2022-07-29T00:51:56;2.70;;;1.20;;
54995;SDS011;40893;47.146;9.126;2022-07-29T00:54:22;2.28;;;1.65;;
54995;SDS011;40893;47.146;9.126;2022-07-29T00:56:48;1.40;;;1.30;;
54995;SDS011;40893;47.146;9.126;2022-07-29T00:59:14;2.90;;;1.58;;
54995;SDS011;40893;47.146;9.126;2022-07-29T01:01:39;3.70;;;1.38;;
54995;SDS011;40893;47.146;9.126;2022-07-29T01:04:05;4.25;;;1.30;;
54995;SDS011;40893;47.146;9.126;2022-07-29T01:06:31;1.63;;;1.10;;
54995;SDS011;40893;47.146;9.126;2022-07-29T01:08:58;1.58;;;1.25;;
54995;SDS011;40893;47.146;9.126;2022-07-29T01:11:24;1.27;;;1.15;;
54995;SDS011;40893;47.146;9.126;2022-07-29T01:13:50;4.75;;;1.40;;
54995;SDS011;40893;47.146;9.126;2022-07-29T01:16:31;3.22;;;1.58;;
54995;SDS011;40893;47.146;9.126;2022-07-29T01:19:06;1.42;;;1.33;;
54995;SDS011;40893;47.146;9.126;2022-07-29T01:27:04;2.50;;;1.42;;
54995;SDS011;40893;47.146;9.126;2022-07-29T01:29:58;2.88;;;1.40;;
54995;SDS011;40893;47.146;9.126;2022-07-29T01:32:28;1.55;;;1.45;;
54995;SDS011;40893;47.146;9.126;2022-07-29T01:37:56;1.52;;;1.30;;
54995;SDS011;40893;47.146;9.126;2022-07-29T01:40:38;1.48;;;1.38;;
54995;SDS011;40893;47.146;9.126;2022-07-29T01:43:10;2.85;;;1.90;;
54995;SDS011;40893;47.146;9.126;2022-07-29T01:46:01;3.83;;;1.30;;
54995;SDS011;40893;47.146;9.126;2022-07-29T01:48:38;2.67;;;1.45;;
54995;SDS011;40893;47.146;9.126;2022-07-29T01:51:18;4.32;;;1.42;;
54995;SDS011;40893;47.146;9.126;2022-07-29T01:56:27;6.80;;;1.50;;
54995;SDS011;40893;47.146;9.126;2022-07-29T01:58:57;3.90;;;1.40;;
54995;SDS011;40893;47.146;9.126;2022-07-29T02:01:24;1.48;;;1.38;;
54995;SDS011;40893;47.146;9.126;2022-07-29T02:03:51;3.08;;;1.30;;
54995;SDS011;40893;47.146;9.126;2022-07-29T02:06:19;1.73;;;1.15;;
54995;SDS011;40893;47.146;9.126;2022-07-29T02:08:47;3.88;;;1.40;;
54995;SDS011;40893;47.146;9.126;2022-07-29T02:11:15;1.40;;;1.30;;
54995;SDS011;40893;47.146;9.126;2022-07-29T02:13:41;3.47;;;1.58;;
54995;SDS011;40893;47.146;9.126;2022-07-29T02:16:08;1.88;;;1.33;;
54995;SDS011;40893;47.146;9.126;2022-07-29T02:18:35;1.50;;;1.40;;
54995;SDS011;40893;47.146;9.126;2022-07-29T02:21:03;1.98;;;1.20;;
54995;SDS011;40893;47.146;9.126;2022-07-29T02:23:30;2.25;;;1.58;;
54995;SDS011;40893;47.146;9.126;2022-07-29T02:25:57;4.35;;;1.10;;
54995;SDS011;40893;47.146;9.126;2022-07-29T02:28:28;3.83;;;1.40;;
54995;SDS011;40893;47.146;9.126;2022-07-29T02:30:57;4.63;;;1.50;;
54995;SDS011;40893;47.146;9.126;2022-07-29T02:33:24;1.45;;;1.35;;
54995;SDS011;40893;47.146;9.126;2022-07-29T02:35:51;2.00;;;1.25;;
54995;SDS011;40893;47.146;9.126;2022-07-29T02:38:18;3.00;;;1.30;;
54995;SDS011;40893;47.146;9.126;2022-07-29T02:41:14;1.63;;;1.45;;
54995;SDS011;40893;47.146;9.126;2022-07-29T02:43:47;1.98;;;1.50;;
54995;SDS011;40893;47.146;9.126;2022-07-29T02:46:19;2.90;;;1.85;;
54995;SDS011;40893;47.146;9.126;2022-07-29T02:48:54;1.70;;;1.17;;
54995;SDS011;40893;47.146;9.126;2022-07-29T02:51:24;2.35;;;1.48;;
54995;SDS011;40893;47.146;9.126;2022-07-29T02:53:54;2.70;;;1.23;;
54995;SDS011;40893;47.146;9.126;2022-07-29T02:56:24;3.08;;;1.40;;
54995;SDS011;40893;47.146;9.126;2022-07-29T02:58:59;4.20;;;1.75;;
54995;SDS011;40893;47.146;9.126;2022-07-29T03:01:29;3.55;;;1.35;;
54995;SDS011;40893;47.146;9.126;2022-07-29T03:03:57;2.58;;;1.42;;
54995;SDS011;40893;47.146;9.126;2022-07-29T03:06:28;5.90;;;1.20;;
54995;SDS011;40893;47.146;9.126;2022-07-29T03:08:54;1.73;;;1.30;;
54995;SDS011;40893;47.146;9.126;2022-07-29T03:11:20;7.47;;;1.33;;
54995;SDS011;40893;47.146;9.126;2022-07-29T03:13:47;1.23;;;1.00;;
54995;SDS011;40893;47.146;9.126;2022-07-29T03:16:13;1.40;;;1.30;;
54995;SDS011;40893;47.146;9.126;2022-07-29T03:18:40;5.82;;;1.23;;
54995;SDS011;40893;47.146;9.126;2022-07-29T03:21:06;3.35;;;1.30;;
54995;SDS011;40893;47.146;9.126;2022-07-29T03:23:33;3.22;;;1.25;;
54995;SDS011;40893;47.146;9.126;2022-07-29T03:25:59;4.35;;;1.35;;
54995;SDS011;40893;47.146;9.126;2022-07-29T03:28:24;2.22;;;1.40;;
54995;SDS011;40893;47.146;9.126;2022-07-29T03:30:52;1.40;;;1.30;;
54995;SDS011;40893;47.146;9.126;2022-07-29T03:33:18;4.45;;;1.40;;
54995;SDS011;40893;47.146;9.126;2022-07-29T03:35:44;4.90;;;1.20;;
54995;SDS011;40893;47.146;9.126;2022-07-29T03:38:09;6.40;;;1.20;;
54995;SDS011;40893;47.146;9.126;2022-07-29T03:40:40;1.88;;;1.55;;
54995;SDS011;40893;47.146;9.126;2022-07-29T03:43:11;4.13;;;1.15;;
54995;SDS011;40893;47.146;9.126;2022-07-29T03:45:40;1.95;;;1.27;;
54995;SDS011;40893;47.146;9.126;2022-07-29T03:48:12;1.92;;;1.55;;
54995;SDS011;40893;47.146;9.126;2022-07-29T03:50:39;3.25;;;1.33;;
54995;SDS011;40893;47.146;9.126;2022-07-29T03:53:05;3.83;;;1.35;;
54995;SDS011;40893;47.146;9.126;2022-07-29T03:55:32;6.45;;;1.63;;
54995;SDS011;40893;47.146;9.126;2022-07-29T03:58:05;1.85;;;1.20;;
54995;SDS011;40893;47.146;9.126;2022-07-29T04:00:33;2.53;;;1.33;;
54995;SDS011;40893;47.146;9.126;2022-07-29T04:02:59;5.78;;;1.35;;
54995;SDS011;40893;47.146;9.126;2022-07-29T04:05:26;4.80;;;1.23;;
54995;SDS011;40893;47.146;9.126;2022-07-29T04:07:51;4.90;;;1.60;;
54995;SDS011;40893;47.146;9.126;2022-07-29T04:10:18;2.00;;;1.40;;
54995;SDS011;40893;47.146;9.126;2022-07-29T04:12:44;3.65;;;1.50;;
54995;SDS011;40893;47.146;9.126;2022-07-29T04:15:10;2.30;;;1.42;;
54995;SDS011;40893;47.146;9.126;2022-07-29T04:17:35;1.50;;;1.40;;
54995;SDS011;40893;47.146;9.126;2022-07-29T04:20:01;2.25;;;1.75;;
54995;SDS011;40893;47.146;9.126;2022-07-29T04:22:27;1.67;;;1.58;;
54995;SDS011;40893;47.146;9.126;2022-07-29T04:24:53;1.90;;;1.70;;
54995;SDS011;40893;47.146;9.126;2022-07-29T04:27:18;2.45;;;1.77;;
54995;SDS011;40893;47.146;9.126;2022-07-29T04:29:44;2.03;;;1.50;;
54995;SDS011;40893;47.146;9.126;2022-07-29T04:32:09;1.42;;;1.30;;
54995;SDS011;40893;47.146;9.126;2022-07-29T04:34:35;4.82;;;1.50;;
54995;SDS011;40893;47.146;9.126;2022-07-29T04:37:00;1.65;;;1.20;;
54995;SDS011;40893;47.146;9.126;2022-07-29T04:39:25;7.20;;;1.40;;
54995;SDS011;40893;47.146;9.126;2022-07-29T04:41:51;3.17;;;1.40;;
54995;SDS011;40893;47.146;9.126;2022-07-29T04:44:16;5.93;;;1.35;;
54995;SDS011;40893;47.146;9.126;2022-07-29T04:46:42;2.92;;;1.60;;
54995;SDS011;40893;47.146;9.126;2022-07-29T04:49:08;5.22;;;1.50;;
54995;SDS011;40893;47.146;9.126;2022-07-29T04:51:34;3.65;;;1.40;;
54995;SDS011;40893;47.146;9.126;2022-07-29T04:53:59;1.92;;;1.25;;
54995;SDS011;40893;47.146;9.126;2022-07-29T04:56:26;2.90;;;1.33;;
54995;SDS011;40893;47.146;9.126;2022-07-29T04:58:51;2.40;;;1.38;;
54995;SDS011;40893;47.146;9.126;2022-07-29T05:01:17;2.08;;;1.33;;
54995;SDS011;40893;47.146;9.126;2022-07-29T05:03:43;1.58;;;1.42;;
54995;SDS011;40893;47.146;9.126;2022-07-29T05:06:10;3.58;;;1.42;;
54995;SDS011;40893;47.146;9.126;2022-07-29T05:08:35;2.90;;;1.65;;
54995;SDS011;40893;47.146;9.126;2022-07-29T05:11:01;2.08;;;1.30;;
54995;SDS011;40893;47.146;9.126;2022-07-29T05:13:28;1.55;;;1.23;;
54995;SDS011;40893;47.146;9.126;2022-07-29T05:15:54;2.15;;;1.40;;
54995;SDS011;40893;47.146;9.126;2022-07-29T05:18:19;1.80;;;1.30;;
54995;SDS011;40893;47.146;9.126;2022-07-29T05:20:45;2.58;;;1.50;;
54995;SDS011;40893;47.146;9.126;2022-07-29T05:23:10;1.42;;;1.20;;
54995;SDS011;40893;47.146;9.126;2022-07-29T05:25:37;2.22;;;1.25;;
54995;SDS011;40893;47.146;9.126;2022-07-29T05:28:03;3.22;;;1.40;;
54995;SDS011;40893;47.146;9.126;2022-07-29T05:30:29;1.33;;;1.20;;
54995;SDS011;40893;47.146;9.126;2022-07-29T05:32:54;6.88;;;1.67;;
54995;SDS011;40893;47.146;9.126;2022-07-29T05:35:20;2.88;;;1.55;;
54995;SDS011;40893;47.146;9.126;2022-07-29T05:37:45;3.17;;;1.40;;
54995;SDS011;40893;47.146;9.126;2022-07-29T05:40:11;2.88;;;1.35;;
54995;SDS011;40893;47.146;9.126;2022-07-29T05:42:36;6.13;;;1.55;;
54995;SDS011;40893;47.146;9.126;2022-07-29T05:45:02;2.85;;;1.50;;
54995;SDS011;40893;47.146;9.126;2022-07-29T05:47:28;2.00;;;1.60;;
54995;SDS011;40893;47.146;9.126;2022-07-29T05:49:54;2.33;;;1.70;;
54995;SDS011;40893;47.146;9.126;2022-07-29T05:52:20;2.83;;;1.83;;
54995;SDS011;40893;47.146;9.126;2022-07-29T05:54:45;3.05;;;1.30;;
54995;SDS011;40893;47.146;9.126;2022-07-29T05:57:15;2.55;;;1.70;;
54995;SDS011;40893;47.146;9.126;2022-07-29T05:59:41;2.22;;;1.50;;
54995;SDS011;40893;47.146;9.126;2022-07-29T06:02:07;2.92;;;1.30;;
54995;SDS011;40893;47.146;9.126;2022-07-29T06:04:33;9.13;;;1.65;;
54995;SDS011;40893;47.146;9.126;2022-07-29T06:06:59;2.63;;;1.55;;
54995;SDS011;40893;47.146;9.126;2022-07-29T06:09:24;1.75;;;1.42;;
54995;SDS011;40893;47.146;9.126;2022-07-29T06:11:51;1.45;;;1.35;;
54995;SDS011;40893;47.146;9.126;2022-07-29T06:14:17;3.55;;;1.50;;
54995;SDS011;40893;47.146;9.126;2022-07-29T06:16:42;1.73;;;1.50;;
54995;SDS011;40893;47.146;9.126;2022-07-29T06:19:08;3.55;;;1.50;;
54995;SDS011;40893;47.146;9.126;2022-07-29T06:21:34;1.95;;;1.55;;
54995;SDS011;40893;47.146;9.126;2022-07-29T06:23:59;1.63;;;1.30;;
54995;SDS011;40893;47.146;9.126;2022-07-29T06:26:25;3.58;;;1.52;;
54995;SDS011;40893;47.146;9.126;2022-07-29T06:28:50;4.18;;;1.40;;
54995;SDS011;40893;47.146;9.126;2022-07-29T06:31:16;1.40;;;1.30;;
54995;SDS011;40893;47.146;9.126;2022-07-29T06:33:41;9.38;;;1.50;;
54995;SDS011;40893;47.146;9.126;2022-07-29T06:36:07;3.47;;;1.33;;
54995;SDS011;40893;47.146;9.126;2022-07-29T06:38:33;3.03;;;1.40;;
54995;SDS011;40893;47.146;9.126;2022-07-29T06:40:59;3.60;;;1.63;;
54995;SDS011;40893;47.146;9.126;2022-07-29T06:43:41;4.65;;;1.90;;
54995;SDS011;40893;47.146;9.126;2022-07-29T06:46:10;4.20;;;1.60;;
54995;SDS011;40893;47.146;9.126;2022-07-29T06:48:38;2.38;;;1.60;;
54995;SDS011;40893;47.146;9.126;2022-07-29T06:51:04;4.60;;;1.40;;
54995;SDS011;40893;47.146;9.126;2022-07-29T06:53:31;2.10;;;1.45;;
54995;SDS011;40893;47.146;9.126;2022-07-29T06:55:58;3.58;;;1.23;;
54995;SDS011;40893;47.146;9.126;2022-07-29T06:58:27;3.60;;;1.10;;
54995;SDS011;40893;47.146;9.126;2022-07-29T07:00:53;6.07;;;1.52;;
54995;SDS011;40893;47.146;9.126;2022-07-29T07:03:19;3.75;;;1.63;;
54995;SDS011;40893;47.146;9.126;2022-07-29T07:05:45;3.30;;;1.80;;
54995;SDS011;40893;47.146;9.126;2022-07-29T07:08:11;2.30;;;2.00;;
54995;SDS011;40893;47.146;9.126;2022-07-29T07:10:38;5.22;;;1.88;;
54995;SDS011;40893;47.146;9.126;2022-07-29T07:13:03;2.60;;;1.80;;
54995;SDS011;40893;47.146;9.126;2022-07-29T07:15:29;2.42;;;1.80;;
54995;SDS011;40893;47.146;9.126;2022-07-29T07:17:55;6.82;;;2.30;;
54995;SDS011;40893;47.146;9.126;2022-07-29T07:20:21;2.85;;;1.40;;
54995;SDS011;40893;47.146;9.126;2022-07-29T07:22:46;1.95;;;1.50;;
54995;SDS011;40893;47.146;9.126;2022-07-29T07:25:12;3.70;;;1.65;;
54995;SDS011;40893;47.146;9.126;2022-07-29T07:27:38;6.70;;;2.00;;
54995;SDS011;40893;47.146;9.126;2022-07-29T07:30:05;5.68;;;2.05;;
54995;SDS011;40893;47.146;9.126;2022-07-29T07:32:32;8.13;;;2.10;;
54995;SDS011;40893;47.146;9.126;2022-07-29T07:34:58;2.33;;;1.92;;
54995;SDS011;40893;47.146;9.126;2022-07-29T07:37:24;2.30;;;1.85;;
54995;SDS011;40893;47.146;9.126;2022-07-29T07:39:51;6.38;;;2.10;;
54995;SDS011;40893;47.146;9.126;2022-07-29T07:42:17;2.10;;;1.90;;
54995;SDS011;40893;47.146;9.126;2022-07-29T07:44:43;6.22;;;2.30;;
54995;SDS011;40893;47.146;9.126;2022-07-29T07:47:11;4.43;;;2.58;;
54995;SDS011;40893;47.146;9.126;2022-07-29T07:49:37;3.28;;;2.45;;
54995;SDS011;40893;47.146;9.126;2022-07-29T07:52:04;2.83;;;2.50;;
54995;SDS011;40893;47.146;9.126;2022-07-29T07:54:30;3.00;;;2.70;;
54995;SDS011;40893;47.146;9.126;2022-07-29T07:56:55;3.38;;;3.08;;
54995;SDS011;40893;47.146;9.126;2022-07-29T07:59:21;5.47;;;2.80;;
54995;SDS011;40893;47.146;9.126;2022-07-29T08:01:47;4.53;;;2.45;;
54995;SDS011;40893;47.146;9.126;2022-07-29T08:04:12;3.10;;;2.80;;
54995;SDS011;40893;47.146;9.126;2022-07-29T08:06:38;3.28;;;2.80;;
54995;SDS011;40893;47.146;9.126;2022-07-29T08:09:04;3.05;;;2.75;;
54995;SDS011;40893;47.146;9.126;2022-07-29T08:11:30;2.92;;;2.67;;
54995;SDS011;40893;47.146;9.126;2022-07-29T08:13:55;2.13;;;2.00;;
54995;SDS011;40893;47.146;9.126;2022-07-29T08:16:21;2.05;;;1.60;;
54995;SDS011;40893;47.146;9.126;2022-07-29T08:18:47;1.83;;;1.67;;
54995;SDS011;40893;47.146;9.126;2022-07-29T08:21:13;1.98;;;1.58;;
54995;SDS011;40893;47.146;9.126;2022-07-29T08:23:40;2.50;;;2.10;;
54995;SDS011;40893;47.146;9.126;2022-07-29T08:26:11;2.17;;;1.95;;
54995;SDS011;40893;47.146;9.126;2022-07-29T08:28:38;2.00;;;1.80;;
54995;SDS011;40893;47.146;9.126;2022-07-29T08:31:05;2.53;;;2.13;;
54995;SDS011;40893;47.146;9.126;2022-07-29T08:33:31;5.05;;;2.40;;
54995;SDS011;40893;47.146;9.126;2022-07-29T08:35:57;2.75;;;2.50;;
54995;SDS011;40893;47.146;9.126;2022-07-29T08:38:24;3.05;;;2.72;;
54995;SDS011;40893;47.146;9.126;2022-07-29T08:40:51;3.00;;;2.70;;
54995;SDS011;40893;47.146;9.126;2022-07-29T08:43:18;2.53;;;2.00;;
54995;SDS011;40893;47.146;9.126;2022-07-29T08:45:48;2.65;;;2.25;;
54995;SDS011;40893;47.146;9.126;2022-07-29T08:48:16;1.77;;;1.65;;
54995;SDS011;40893;47.146;9.126;2022-07-29T08:50:47;3.25;;;2.17;;
54995;SDS011;40893;47.146;9.126;2022-07-29T08:53:14;1.63;;;1.52;;
54995;SDS011;40893;47.146;9.126;2022-07-29T08:55:50;1.83;;;1.70;;
54995;SDS011;40893;47.146;9.126;2022-07-29T08:58:16;3.08;;;1.70;;
54995;SDS011;40893;47.146;9.126;2022-07-29T09:00:46;1.65;;;1.55;;
54995;SDS011;40893;47.146;9.126;2022-07-29T09:03:18;1.50;;;1.40;;
54995;SDS011;40893;47.146;9.126;2022-07-29T09:05:45;2.97;;;1.30;;
54995;SDS011;40893;47.146;9.126;2022-07-29T09:08:14;3.45;;;1.40;;
54995;SDS011;40893;47.146;9.126;2022-07-29T09:10:41;1.52;;;1.42;;
54995;SDS011;40893;47.146;9.126;2022-07-29T09:13:07;3.17;;;1.60;;
54995;SDS011;40893;47.146;9.126;2022-07-29T09:15:33;2.78;;;1.50;;
54995;SDS011;40893;47.146;9.126;2022-07-29T09:17:59;1.88;;;1.50;;
54995;SDS011;40893;47.146;9.126;2022-07-29T09:20:25;1.80;;;1.67;;
54995;SDS011;40893;47.146;9.126;2022-07-29T09:22:52;2.35;;;1.88;;
54995;SDS011;40893;47.146;9.126;2022-07-29T09:25:34;1.90;;;1.60;;
54995;SDS011;40893;47.146;9.126;2022-07-29T09:28:08;3.05;;;2.00;;
54995;SDS011;40893;47.146;9.126;2022-07-29T09:30:35;1.98;;;1.67;;
54995;SDS011;40893;47.146;9.126;2022-07-29T09:33:14;2.38;;;1.65;;
54995;SDS011;40893;47.146;9.126;2022-07-29T09:35:40;1.70;;;1.60;;
54995;SDS011;40893;47.146;9.126;2022-07-29T09:38:12;2.28;;;1.80;;
54995;SDS011;40893;47.146;9.126;2022-07-29T09:40:39;1.70;;;1.60;;
54995;SDS011;40893;47.146;9.126;2022-07-29T09:43:11;1.80;;;1.70;;
54995;SDS011;40893;47.146;9.126;2022-07-29T09:45:38;2.00;;;1.83;;
54995;SDS011;40893;47.146;9.126;2022-07-29T09:48:18;1.95;;;1.38;;
54995;SDS011;40893;47.146;9.126;2022-07-29T09:50:46;1.60;;;1.50;;
54995;SDS011;40893;47.146;9.126;2022-07-29T09:53:34;2.72;;;1.98;;
54995;SDS011;40893;47.146;9.126;2022-07-29T09:56:01;2.20;;;2.00;;
54995;SDS011;40893;47.146;9.126;2022-07-29T09:58:27;2.13;;;1.73;;
54995;SDS011;40893;47.146;9.126;2022-07-29T10:00:53;2.38;;;1.75;;
54995;SDS011;40893;47.146;9.126;2022-07-29T10:03:20;2.92;;;1.67;;
54995;SDS011;40893;47.146;9.126;2022-07-29T10:06:03;2.17;;;1.70;;
54995;SDS011;40893;47.146;9.126;2022-07-29T10:08:33;2.42;;;2.20;;
54995;SDS011;40893;47.146;9.126;2022-07-29T10:11:18;1.92;;;1.50;;
54995;SDS011;40893;47.146;9.126;2022-07-29T10:13:47;2.85;;;2.00;;
54995;SDS011;40893;47.146;9.126;2022-07-29T10:16:14;2.92;;;2.00;;
54995;SDS011;40893;47.146;9.126;2022-07-29T10:18:41;1.88;;;1.70;;
54995;SDS011;40893;47.146;9.126;2022-07-29T10:21:08;1.90;;;1.70;;
54995;SDS011;40893;47.146;9.126;2022-07-29T10:23:52;1.92;;;1.67;;
54995;SDS011;40893;47.146;9.126;2022-07-29T10:26:18;3.45;;;1.80;;
54995;SDS011;40893;47.146;9.126;2022-07-29T10:28:46;3.03;;;1.67;;
54995;SDS011;40893;47.146;9.126;2022-07-29T10:31:33;3.38;;;1.75;;
54995;SDS011;40893;47.146;9.126;2022-07-29T10:37:28;2.35;;;1.60;;
54995;SDS011;40893;47.146;9.126;2022-07-29T10:44:09;1.80;;;1.70;;
54995;SDS011;40893;47.146;9.126;2022-07-29T10:46:48;2.28;;;1.83;;
54995;SDS011;40893;47.146;9.126;2022-07-29T10:49:32;2.65;;;1.58;;
54995;SDS011;40893;47.146;9.126;2022-07-29T10:55:48;1.85;;;1.67;;
54995;SDS011;40893;47.146;9.126;2022-07-29T10:58:28;2.03;;;1.67;;
54995;SDS011;40893;47.146;9.126;2022-07-29T11:01:39;3.35;;;1.77;;
54995;SDS011;40893;47.146;9.126;2022-07-29T11:07:18;1.73;;;1.63;;
54995;SDS011;40893;47.146;9.126;2022-07-29T11:09:44;2.92;;;1.80;;
54995;SDS011;40893;47.146;9.126;2022-07-29T11:13:02;2.33;;;2.10;;
54995;SDS011;40893;47.146;9.126;2022-07-29T11:15:28;2.28;;;2.10;;
54995;SDS011;40893;47.146;9.126;2022-07-29T11:21:22;2.33;;;2.08;;
54995;SDS011;40893;47.146;9.126;2022-07-29T11:24:15;3.30;;;2.08;;
54995;SDS011;40893;47.146;9.126;2022-07-29T11:26:44;4.15;;;2.67;;
54995;SDS011;40893;47.146;9.126;2022-07-29T11:29:23;4.07;;;2.70;;
54995;SDS011;40893;47.146;9.126;2022-07-29T11:32:09;3.67;;;2.50;;
54995;SDS011;40893;47.146;9.126;2022-07-29T11:35:11;4.25;;;2.45;;
54995;SDS011;40893;47.146;9.126;2022-07-29T11:38:33;5.30;;;2.00;;
54995;SDS011;40893;47.146;9.126;2022-07-29T11:49:31;4.50;;;2.45;;
54995;SDS011;40893;47.146;9.126;2022-07-29T11:52:17;2.35;;;2.05;;
54995;SDS011;40893;47.146;9.126;2022-07-29T11:55:09;3.53;;;2.60;;
54995;SDS011;40893;47.146;9.126;2022-07-29T11:57:56;2.95;;;2.47;;
54995;SDS011;40893;47.146;9.126;2022-07-29T12:03:23;2.60;;;2.25;;
54995;SDS011;40893;47.146;9.126;2022-07-29T12:05:53;2.40;;;2.20;;
54995;SDS011;40893;47.146;9.126;2022-07-29T12:08:41;3.30;;;2.22;;
54995;SDS011;40893;47.146;9.126;2022-07-29T12:11:15;3.33;;;2.58;;
54995;SDS011;40893;47.146;9.126;2022-07-29T12:13:42;2.95;;;2.53;;
54995;SDS011;40893;47.146;9.126;2022-07-29T12:16:33;2.45;;;2.05;;
54995;SDS011;40893;47.146;9.126;2022-07-29T12:19:03;5.43;;;2.25;;
54995;SDS011;40893;47.146;9.126;2022-07-29T12:21:51;2.42;;;2.20;;
54995;SDS011;40893;47.146;9.126;2022-07-29T12:24:21;2.08;;;1.98;;
54995;SDS011;40893;47.146;9.126;2022-07-29T12:26:55;2.45;;;2.20;;
54995;SDS011;40893;47.146;9.126;2022-07-29T12:29:28;4.13;;;2.15;;
54995;SDS011;40893;47.146;9.126;2022-07-29T12:31:55;8.40;;;2.10;;
54995;SDS011;40893;47.146;9.126;2022-07-29T12:34:58;4.15;;;1.90;;
54995;SDS011;40893;47.146;9.126;2022-07-29T12:38:09;6.78;;;2.40;;
54995;SDS011;40893;47.146;9.126;2022-07-29T12:40:55;1.98;;;1.67;;
54995;SDS011;40893;47.146;9.126;2022-07-29T12:43:30;3.92;;;2.05;;
54995;SDS011;40893;47.146;9.126;2022-07-29T12:45:56;6.15;;;2.33;;
54995;SDS011;40893;47.146;9.126;2022-07-29T12:48:53;3.78;;;2.30;;
54995;SDS011;40893;47.146;9.126;2022-07-29T12:51:33;2.58;;;2.15;;
54995;SDS011;40893;47.146;9.126;2022-07-29T12:54:03;4.38;;;2.38;;
54995;SDS011;40893;47.146;9.126;2022-07-29T12:57:00;4.05;;;2.20;;
54995;SDS011;40893;47.146;9.126;2022-07-29T12:59:26;5.40;;;2.40;;
54995;SDS011;40893;47.146;9.126;2022-07-29T13:02:04;4.20;;;2.13;;
54995;SDS011;40893;47.146;9.126;2022-07-29T13:04:38;4.07;;;2.15;;
54995;SDS011;40893;47.146;9.126;2022-07-29T13:07:08;2.95;;;2.03;;
54995;SDS011;40893;47.146;9.126;2022-07-29T13:09:43;2.47;;;2.10;;
54995;SDS011;40893;47.146;9.126;2022-07-29T13:12:18;2.50;;;1.80;;
54995;SDS011;40893;47.146;9.126;2022-07-29T13:15:12;4.10;;;1.98;;
54995;SDS011;40893;47.146;9.126;2022-07-29T13:17:42;2.58;;;2.25;;
54995;SDS011;40893;47.146;9.126;2022-07-29T13:20:28;2.85;;;2.10;;
54995;SDS011;40893;47.146;9.126;2022-07-29T13:23:00;2.78;;;2.30;;
54995;SDS011;40893;47.146;9.126;2022-07-29T13:25:29;2.53;;;1.95;;
54995;SDS011;40893;47.146;9.126;2022-07-29T13:28:10;4.75;;;2.45;;
54995;SDS011;40893;47.146;9.126;2022-07-29T13:31:16;3.30;;;2.60;;
54995;SDS011;40893;47.146;9.126;2022-07-29T13:34:17;4.32;;;2.65;;
54995;SDS011;40893;47.146;9.126;2022-07-29T13:37:01;5.25;;;2.60;;
54995;SDS011;40893;47.146;9.126;2022-07-29T13:39:27;4.13;;;2.83;;
54995;SDS011;40893;47.146;9.126;2022-07-29T13:41:54;3.60;;;3.30;;
54995;SDS011;40893;47.146;9.126;2022-07-29T13:44:19;5.70;;;3.50;;
54995;SDS011;40893;47.146;9.126;2022-07-29T13:46:45;6.97;;;3.53;;
54995;SDS011;40893;47.146;9.126;2022-07-29T13:49:10;3.50;;;3.20;;
54995;SDS011;40893;47.146;9.126;2022-07-29T13:51:36;3.55;;;3.25;;
54995;SDS011;40893;47.146;9.126;2022-07-29T13:54:03;7.20;;;3.97;;
54995;SDS011;40893;47.146;9.126;2022-07-29T13:56:29;4.05;;;3.67;;
54995;SDS011;40893;47.146;9.126;2022-07-29T13:58:54;6.00;;;3.65;;
54995;SDS011;40893;47.146;9.126;2022-07-29T14:01:20;4.32;;;3.55;;
54995;SDS011;40893;47.146;9.126;2022-07-29T14:03:46;4.25;;;3.70;;
54995;SDS011;40893;47.146;9.126;2022-07-29T14:06:11;6.35;;;3.55;;
54995;SDS011;40893;47.146;9.126;2022-07-29T14:08:37;6.03;;;3.83;;
54995;SDS011;40893;47.146;9.126;2022-07-29T14:11:02;4.90;;;3.35;;
54995;SDS011;40893;47.146;9.126;2022-07-29T14:13:28;5.47;;;3.80;;
54995;SDS011;40893;47.146;9.126;2022-07-29T14:15:54;5.50;;;3.67;;
54995;SDS011;40893;47.146;9.126;2022-07-29T14:18:19;5.15;;;4.50;;
54995;SDS011;40893;47.146;9.126;2022-07-29T14:20:45;6.97;;;3.88;;
54995;SDS011;40893;47.146;9.126;2022-07-29T14:23:10;5.07;;;3.97;;
54995;SDS011;40893;47.146;9.126;2022-07-29T14:25:36;7.82;;;4.13;;
54995;SDS011;40893;47.146;9.126;2022-07-29T14:28:01;5.53;;;4.85;;
54995;SDS011;40893;47.146;9.126;2022-07-29T14:30:27;3.42;;;3.13;;
54995;SDS011;40893;47.146;9.126;2022-07-29T14:32:52;5.50;;;3.65;;
54995;SDS011;40893;47.146;9.126;2022-07-29T14:35:18;5.38;;;4.38;;
54995;SDS011;40893;47.146;9.126;2022-07-29T14:37:44;6.75;;;3.78;;
54995;SDS011;40893;47.146;9.126;2022-07-29T14:40:09;3.40;;;3.10;;
54995;SDS011;40893;47.146;9.126;2022-07-29T14:42:36;3.22;;;2.92;;
54995;SDS011;40893;47.146;9.126;2022-07-29T14:45:03;3.92;;;3.53;;
54995;SDS011;40893;47.146;9.126;2022-07-29T14:47:32;4.03;;;2.80;;
54995;SDS011;40893;47.146;9.126;2022-07-29T14:49:58;4.38;;;3.20;;
54995;SDS011;40893;47.146;9.126;2022-07-29T14:52:23;5.55;;;2.58;;
54995;SDS011;40893;47.146;9.126;2022-07-29T14:54:49;5.25;;;3.80;;
54995;SDS011;40893;47.146;9.126;2022-07-29T14:57:14;5.32;;;4.00;;
54995;SDS011;40893;47.146;9.126;2022-07-29T14:59:40;5.88;;;4.28;;
54995;SDS011;40893;47.146;9.126;2022-07-29T15:02:05;4.22;;;3.83;;
54995;SDS011;40893;47.146;9.126;2022-07-29T15:04:31;8.10;;;4.57;;
54995;SDS011;40893;47.146;9.126;2022-07-29T15:06:56;5.13;;;4.05;;
54995;SDS011;40893;47.146;9.126;2022-07-29T15:09:23;4.22;;;3.83;;
54995;SDS011;40893;47.146;9.126;2022-07-29T15:11:48;4.57;;;3.45;;
54995;SDS011;40893;47.146;9.126;2022-07-29T15:14:14;4.40;;;4.00;;
54995;SDS011;40893;47.146;9.126;2022-07-29T15:16:39;5.13;;;4.32;;
54995;SDS011;40893;47.146;9.126;2022-07-29T15:19:07;6.78;;;4.15;;
54995;SDS011;40893;47.146;9.126;2022-07-29T15:21:34;5.13;;;4.55;;
54995;SDS011;40893;47.146;9.126;2022-07-29T15:24:00;4.25;;;3.85;;
54995;SDS011;40893;47.146;9.126;2022-07-29T15:26:25;6.13;;;4.07;;
54995;SDS011;40893;47.146;9.126;2022-07-29T15:28:51;6.20;;;4.85;;
54995;SDS011;40893;47.146;9.126;2022-07-29T15:31:16;3.88;;;2.63;;
54995;SDS011;40893;47.146;9.126;2022-07-29T15:33:43;2.20;;;2.00;;
54995;SDS011;40893;47.146;9.126;2022-07-29T15:36:09;4.15;;;2.03;;
54995;SDS011;40893;47.146;9.126;2022-07-29T15:38:37;3.05;;;2.03;;
54995;SDS011;40893;47.146;9.126;2022-07-29T15:41:03;2.20;;;1.92;;
54995;SDS011;40893;47.146;9.126;2022-07-29T15:43:28;2.92;;;2.20;;